Time;durP1;ratioP1;P1;durP2;ratioP2;P2;SDS_P1;SDS_P2;PMS_P1;PMS_P2;Temp;Humidity;BMP_temperature;BMP_pressure;BME280_temperature;BME280_humidity;BME280_pressure;Samples;Min_cycle;Max_cycle;Signal;HPM_P1;HPM_P2
2023/07/29 00:01:09;;;;;;;1.45;0.82;;;;;;;16.05;100.00;95474.34;5104766;28;20071;-72
2023/07/29 00:03:36;;;;;;;4.03;1.00;;;;;;;16.02;100.00;95474.59;5100121;28;20063;-72
2023/07/29 00:06:03;;;;;;;1.83;0.73;;;;;;;16.12;100.00;95468.44;5088431;28;20059;-72
2023/07/29 00:08:30;;;;;;;0.88;0.75;;;;;;;15.96;100.00;95468.97;5092536;28;20044;-72
2023/07/29 00:10:56;;;;;;;1.00;0.60;;;;;;;15.96;100.00;95466.38;5095473;28;20051;-72
2023/07/29 00:13:23;;;;;;;0.50;0.50;;;;;;;16.09;100.00;95473.09;5101251;28;20100;-72
2023/07/29 00:15:49;;;;;;;1.67;0.80;;;;;;;16.12;100.00;95465.81;5095980;28;20048;-72
2023/07/29 00:18:16;;;;;;;5.13;0.90;;;;;;;16.17;100.00;95460.19;5102737;28;20047;-72
2023/07/29 00:20:42;;;;;;;0.50;0.50;;;;;;;16.25;100.00;95467.34;5094354;28;20047;-72
2023/07/29 00:23:10;;;;;;;1.48;0.82;;;;;;;16.33;100.00;95463.06;5096003;28;20054;-72
2023/07/29 00:25:36;;;;;;;1.13;0.88;;;;;;;16.38;100.00;95467.88;5098076;28;20055;-72
2023/07/29 00:28:03;;;;;;;11.95;0.80;;;;;;;16.40;100.00;95465.97;5108317;28;20574;-72
2023/07/29 00:30:29;;;;;;;1.35;0.82;;;;;;;16.42;100.00;95461.41;5100264;28;20048;-72
2023/07/29 00:32:55;;;;;;;3.28;1.13;;;;;;;16.41;100.00;95470.22;5099918;28;20497;-72
2023/07/29 00:35:22;;;;;;;0.80;0.80;;;;;;;16.39;100.00;95467.75;5103017;28;20051;-72
2023/07/29 00:37:49;;;;;;;1.98;0.90;;;;;;;16.42;100.00;95469.25;5101217;28;20075;-72
2023/07/29 00:40:21;;;;;;;1.15;0.75;;;;;;;16.46;100.00;95462.75;5104770;28;20200;-72
2023/07/29 00:42:48;;;;;;;1.17;0.85;;;;;;;16.45;100.00;95461.13;5098437;28;20055;-72
2023/07/29 00:45:15;;;;;;;1.13;0.65;;;;;;;16.47;100.00;95455.78;5104264;28;20043;-72
2023/07/29 00:47:43;;;;;;;2.38;0.90;;;;;;;16.48;100.00;95450.41;5095117;28;20048;-72
2023/07/29 00:50:11;;;;;;;2.55;0.82;;;;;;;16.51;100.00;95455.34;5103444;28;20044;-72
2023/07/29 00:52:38;;;;;;;1.50;0.80;;;;;;;16.49;100.00;95446.81;5095124;28;20070;-72
2023/07/29 00:55:05;;;;;;;1.17;0.65;;;;;;;16.48;100.00;95453.00;5103380;28;20051;-72
2023/07/29 00:57:33;;;;;;;1.15;0.90;;;;;;;16.50;100.00;95452.84;5103747;28;20044;-72
2023/07/29 01:00:00;;;;;;;1.88;1.05;;;;;;;16.54;100.00;95447.22;5094474;28;20055;-72
2023/07/29 01:02:29;;;;;;;1.33;1.00;;;;;;;16.55;100.00;95450.66;5091897;28;20501;-72
2023/07/29 01:04:57;;;;;;;1.65;0.82;;;;;;;16.57;100.00;95440.88;5099418;28;20643;-72
2023/07/29 01:07:31;;;;;;;1.10;0.98;;;;;;;16.54;100.00;95443.75;5103225;28;20439;-72
2023/07/29 01:10:02;;;;;;;1.40;0.73;;;;;;;16.55;100.00;95441.03;5097583;28;20059;-72
2023/07/29 01:12:42;;;;;;;1.35;1.05;;;;;;;16.58;100.00;95440.75;5104004;28;20047;-72
2023/07/29 01:15:15;;;;;;;2.17;1.05;;;;;;;16.61;100.00;95445.69;5098150;28;20465;-71
2023/07/29 01:17:47;;;;;;;3.15;1.08;;;;;;;16.60;100.00;95441.41;5097557;28;20047;-72
2023/07/29 01:20:16;;;;;;;4.00;1.23;;;;;;;16.55;100.00;95437.59;5095331;28;20048;-72
2023/07/29 01:22:42;;;;;;;0.82;0.80;;;;;;;16.57;100.00;95441.69;5097584;28;20047;-72
2023/07/29 01:25:10;;;;;;;1.02;0.93;;;;;;;16.57;100.00;95436.47;5100582;28;20048;-72
2023/07/29 01:27:37;;;;;;;1.42;0.95;;;;;;;16.58;100.00;95430.28;5096890;28;20101;-72
2023/07/29 01:30:04;;;;;;;2.22;0.98;;;;;;;16.59;100.00;95424.09;5101087;28;20535;-72
2023/07/29 01:32:38;;;;;;;2.03;1.02;;;;;;;16.44;100.00;95428.13;5094454;28;20047;-72
2023/07/29 01:35:15;;;;;;;1.00;0.85;;;;;;;16.40;100.00;95431.97;5102365;28;21436;-72
2023/07/29 01:37:42;;;;;;;1.20;0.82;;;;;;;16.39;100.00;95425.94;5099080;28;20051;-72
2023/07/29 01:40:11;;;;;;;1.50;1.02;;;;;;;16.23;100.00;95422.22;5102978;28;20507;-72
2023/07/29 01:42:38;;;;;;;5.07;1.25;;;;;;;16.05;100.00;95422.91;5101509;28;20051;-72
2023/07/29 01:45:06;;;;;;;1.65;0.93;;;;;;;16.15;100.00;95421.13;5103423;28;20119;-72
2023/07/29 01:47:33;;;;;;;1.90;1.08;;;;;;;16.15;100.00;95428.16;5101648;28;20044;-72
2023/07/29 01:49:59;;;;;;;0.82;0.73;;;;;;;16.21;100.00;95425.81;5098924;28;20044;-72
2023/07/29 01:52:25;;;;;;;6.65;1.38;;;;;;;16.09;100.00;95421.72;5093517;28;20433;-72
2023/07/29 01:54:52;;;;;;;3.90;1.00;;;;;;;15.92;100.00;95417.16;5103110;28;20501;-72
2023/07/29 01:57:20;;;;;;;1.67;1.00;;;;;;;15.84;100.00;95417.03;5102597;28;20044;-72
2023/07/29 01:59:46;;;;;;;5.88;1.20;;;;;;;15.72;100.00;95411.94;5095691;28;20048;-71
2023/07/29 02:02:12;;;;;;;2.35;0.95;;;;;;;15.59;100.00;95403.50;5095742;28;20040;-72
2023/07/29 02:04:39;;;;;;;0.88;0.80;;;;;;;15.63;100.00;95399.66;5098371;28;20051;-72
2023/07/29 02:07:06;;;;;;;1.42;0.98;;;;;;;15.65;100.00;95408.22;5102469;28;20051;-72
2023/07/29 02:09:32;;;;;;;1.85;0.88;;;;;;;15.59;100.00;95413.94;5098357;28;20043;-72
2023/07/29 02:11:59;;;;;;;1.25;0.85;;;;;;;15.58;100.00;95414.91;5096419;28;20055;-72
2023/07/29 02:14:26;;;;;;;1.20;0.90;;;;;;;15.59;100.00;95410.50;5103774;28;20457;-72
2023/07/29 02:16:53;;;;;;;1.98;1.10;;;;;;;15.72;100.00;95395.44;5095010;28;20047;-72
2023/07/29 02:19:19;;;;;;;0.90;0.50;;;;;;;15.81;100.00;95405.06;5101074;28;20035;-71
2023/07/29 02:21:46;;;;;;;4.43;0.82;;;;;;;15.81;100.00;95394.63;5092549;28;20056;-72
2023/07/29 02:24:12;;;;;;;0.90;0.73;;;;;;;15.90;100.00;95400.78;5103706;28;20044;-72
2023/07/29 02:26:38;;;;;;;1.85;1.42;;;;;;;15.92;100.00;95386.66;5093095;28;20055;-72
2023/07/29 02:29:05;;;;;;;1.75;0.90;;;;;;;15.88;100.00;95389.69;5103703;28;20051;-72
2023/07/29 02:31:34;;;;;;;1.67;0.80;;;;;;;15.92;100.00;95402.31;5093751;28;20048;-72
2023/07/29 02:34:01;;;;;;;1.73;0.70;;;;;;;15.95;100.00;95401.22;5098420;28;20056;-72
2023/07/29 02:36:27;;;;;;;2.33;0.90;;;;;;;15.96;100.00;95402.88;5102116;28;20051;-72
2023/07/29 02:38:53;;;;;;;1.67;1.08;;;;;;;16.00;100.00;95401.63;5105260;28;20048;-72
2023/07/29 02:41:20;;;;;;;0.73;0.70;;;;;;;16.02;100.00;95402.31;5105101;28;20070;-72
2023/07/29 02:43:49;;;;;;;1.52;0.80;;;;;;;16.04;100.00;95404.78;5101923;28;20508;-72
2023/07/29 02:46:16;;;;;;;0.95;0.73;;;;;;;16.03;100.00;95398.75;5105796;28;20047;-72
2023/07/29 02:48:45;;;;;;;3.45;0.82;;;;;;;16.05;100.00;95390.75;5105244;28;20043;-72
2023/07/29 02:51:11;;;;;;;1.58;1.00;;;;;;;16.07;100.00;95396.69;5097049;28;20051;-72
2023/07/29 02:53:38;;;;;;;1.55;1.05;;;;;;;16.06;100.00;95395.03;5106775;28;20043;-72
2023/07/29 02:56:06;;;;;;;2.72;1.10;;;;;;;16.04;100.00;95389.13;5105504;28;20060;-72
2023/07/29 02:58:32;;;;;;;5.20;1.25;;;;;;;16.01;100.00;95376.31;5094938;28;20051;-72
2023/07/29 03:01:01;;;;;;;1.65;0.90;;;;;;;16.00;100.00;95379.91;5106353;28;20133;-72
2023/07/29 03:03:28;;;;;;;1.45;1.00;;;;;;;16.01;100.00;95384.16;5102000;28;20101;-72
2023/07/29 03:05:59;;;;;;;13.15;1.38;;;;;;;16.04;100.00;95379.47;5103232;28;20121;-71
2023/07/29 03:08:26;;;;;;;3.17;1.13;;;;;;;15.97;100.00;95383.59;5094402;28;20267;-71
2023/07/29 03:10:52;;;;;;;3.13;1.00;;;;;;;15.96;100.00;95374.97;5105789;28;20052;-72
2023/07/29 03:13:19;;;;;;;9.07;1.20;;;;;;;15.94;100.00;95376.91;5095442;28;20505;-72
2023/07/29 03:15:45;;;;;;;2.00;0.82;;;;;;;15.99;100.00;95375.66;5097803;28;20109;-71
2023/07/29 03:18:12;;;;;;;1.58;1.08;;;;;;;16.04;100.00;95374.25;5104415;28;20047;-72
2023/07/29 03:20:38;;;;;;;1.70;1.17;;;;;;;16.08;100.00;95372.19;5098414;28;20093;-72
2023/07/29 03:23:06;;;;;;;1.80;0.70;;;;;;;16.12;100.00;95357.88;5103290;28;20052;-72
2023/07/29 03:25:32;;;;;;;4.18;1.13;;;;;;;15.98;100.00;95366.97;5100606;28;20040;-72
2023/07/29 03:27:59;;;;;;;2.65;1.33;;;;;;;15.95;100.00;95375.09;5099778;28;20075;-72
2023/07/29 03:30:25;;;;;;;2.15;1.00;;;;;;;15.96;100.00;95379.34;5102618;28;20071;-72
2023/07/29 03:32:53;;;;;;;1.83;0.95;;;;;;;15.92;100.00;95376.19;5094827;28;20565;-72
2023/07/29 03:35:19;;;;;;;2.45;0.90;;;;;;;15.80;100.00;95377.31;5105196;28;20043;-72
2023/07/29 03:37:47;;;;;;;3.17;1.30;;;;;;;15.87;100.00;95377.56;5101189;28;20048;-72
2023/07/29 03:40:15;;;;;;;2.25;1.00;;;;;;;15.76;100.00;95375.09;5106330;28;20036;-72
2023/07/29 03:42:41;;;;;;;4.75;1.17;;;;;;;15.68;100.00;95376.63;5102865;28;20048;-72
2023/07/29 03:45:08;;;;;;;1.42;0.98;;;;;;;15.71;100.00;95373.72;5105946;28;20549;-72
2023/07/29 03:47:35;;;;;;;1.77;1.10;;;;;;;15.79;100.00;95361.75;5102704;28;20162;-71
2023/07/29 03:50:03;;;;;;;1.42;0.88;;;;;;;15.87;100.00;95354.91;5107753;28;20055;-72
2023/07/29 03:52:29;;;;;;;4.22;1.38;;;;;;;15.90;100.00;95354.59;5107402;28;20044;-72
2023/07/29 03:54:56;;;;;;;5.22;1.13;;;;;;;15.85;100.00;95358.63;5103835;28;20067;-72
2023/07/29 03:57:23;;;;;;;1.15;0.90;;;;;;;15.89;100.00;95359.97;5105100;28;20050;-72
2023/07/29 03:59:50;;;;;;;1.92;1.10;;;;;;;15.96;100.00;95368.91;5100646;28;20046;-72
2023/07/29 04:02:16;;;;;;;2.08;1.23;;;;;;;15.90;100.00;95370.28;5101651;28;20052;-72
2023/07/29 04:04:47;;;;;;;2.22;1.10;;;;;;;15.81;100.00;95378.13;5099372;28;20048;-72
2023/07/29 04:07:13;;;;;;;1.83;1.02;;;;;;;15.80;100.00;95379.94;5090903;28;20050;-72
2023/07/29 04:09:40;;;;;;;3.25;1.15;;;;;;;15.83;100.00;95371.78;5099353;28;20044;-72
2023/07/29 04:12:07;;;;;;;1.75;1.05;;;;;;;15.95;100.00;95364.66;5104022;28;20044;-72
2023/07/29 04:14:35;;;;;;;4.70;1.10;;;;;;;15.92;100.00;95367.53;5101543;28;20055;-72
2023/07/29 04:17:01;;;;;;;3.42;1.50;;;;;;;15.71;100.00;95384.16;5095411;28;20052;-72
2023/07/29 04:19:28;;;;;;;1.08;0.90;;;;;;;15.80;100.00;95379.09;5099229;28;20097;-72
2023/07/29 04:21:54;;;;;;;0.98;0.80;;;;;;;15.85;100.00;95387.34;5095699;28;20048;-71
2023/07/29 04:24:23;;;;;;;2.63;1.00;;;;;;;15.71;100.00;95380.72;5101700;28;20109;-72
2023/07/29 04:26:49;;;;;;;2.00;0.90;;;;;;;15.60;100.00;95389.47;5095662;28;20043;-71
2023/07/29 04:29:16;;;;;;;1.05;0.95;;;;;;;15.56;100.00;95393.31;5100694;28;20054;-72
2023/07/29 04:31:43;;;;;;;1.15;1.02;;;;;;;15.59;100.00;95398.28;5092884;28;20051;-72
2023/07/29 04:34:10;;;;;;;1.02;0.90;;;;;;;15.67;100.00;95388.00;5098670;28;20047;-72
2023/07/29 04:36:36;;;;;;;1.77;1.05;;;;;;;15.78;100.00;95379.22;5095992;28;20044;-72
2023/07/29 04:39:03;;;;;;;1.92;1.20;;;;;;;15.82;100.00;95374.56;5102868;28;20493;-72
2023/07/29 04:41:29;;;;;;;3.25;0.95;;;;;;;15.86;100.00;95373.31;5098797;28;20047;-72
2023/07/29 04:43:56;;;;;;;3.33;1.10;;;;;;;15.89;100.00;95362.59;5103627;28;20055;-72
2023/07/29 04:46:22;;;;;;;2.13;1.00;;;;;;;15.88;100.00;95353.94;5102845;28;20138;-72
2023/07/29 04:48:50;;;;;;;4.50;1.08;;;;;;;15.89;100.00;95355.56;5094685;28;20048;-72
2023/07/29 04:51:17;;;;;;;2.60;0.88;;;;;;;15.84;100.00;95359.59;5096871;28;20619;-72
2023/07/29 04:53:43;;;;;;;6.53;1.05;;;;;;;15.88;100.00;95355.72;5100348;28;20454;-72
2023/07/29 04:56:09;;;;;;;3.22;1.00;;;;;;;15.90;100.00;95343.34;5099808;28;20517;-72
2023/07/29 04:58:36;;;;;;;1.80;0.93;;;;;;;16.00;100.00;95351.19;5098009;28;20101;-72
2023/07/29 05:01:03;;;;;;;2.58;1.30;;;;;;;16.03;100.00;95349.09;5094653;28;20066;-72
2023/07/29 05:03:29;;;;;;;0.93;0.93;;;;;;;16.07;100.00;95331.38;5093512;28;20048;-71
2023/07/29 05:05:59;;;;;;;1.10;0.80;;;;;;;16.15;100.00;95337.53;5100953;28;20051;-72
2023/07/29 05:08:25;;;;;;;1.10;1.00;;;;;;;16.20;100.00;95347.56;5099487;28;20097;-72
2023/07/29 05:10:53;;;;;;;2.28;1.05;;;;;;;16.14;100.00;95354.19;5097084;28;20048;-72
2023/07/29 05:13:20;;;;;;;1.90;1.10;;;;;;;16.16;100.00;95356.63;5093420;28;20043;-72
2023/07/29 05:15:48;;;;;;;1.23;0.85;;;;;;;16.17;100.00;95353.91;5091885;28;20055;-72
2023/07/29 05:18:14;;;;;;;1.13;0.93;;;;;;;16.13;100.00;95354.31;5094779;28;20137;-72
2023/07/29 05:20:41;;;;;;;1.13;0.90;;;;;;;16.17;100.00;95353.91;5091213;28;20051;-72
2023/07/29 05:23:10;;;;;;;2.33;0.77;;;;;;;16.16;100.00;95347.00;5093774;28;20056;-72
2023/07/29 05:25:36;;;;;;;0.90;0.70;;;;;;;16.19;100.00;95354.56;5093997;28;20486;-73
2023/07/29 05:28:03;;;;;;;4.13;1.30;;;;;;;16.17;100.00;95361.75;5097172;28;20093;-73
2023/07/29 05:30:31;;;;;;;1.00;0.90;;;;;;;16.21;100.00;95354.44;5096785;28;20382;-72
2023/07/29 05:32:58;;;;;;;1.20;0.73;;;;;;;16.19;100.00;95366.81;5099826;28;20131;-73
2023/07/29 05:35:24;;;;;;;2.15;0.93;;;;;;;16.23;100.00;95360.34;5099962;28;20055;-72
2023/07/29 05:37:51;;;;;;;4.32;0.88;;;;;;;16.26;100.00;95356.63;5093999;28;20494;-73
2023/07/29 05:40:19;;;;;;;1.65;1.00;;;;;;;16.36;100.00;95352.22;5099965;28;20040;-72
2023/07/29 05:42:45;;;;;;;1.30;1.20;;;;;;;16.39;100.00;95351.94;5093105;28;20044;-72
2023/07/29 05:45:12;;;;;;;4.10;1.02;;;;;;;16.33;100.00;95349.88;5089014;28;20131;-72
2023/07/29 05:47:39;;;;;;;2.92;1.05;;;;;;;16.41;100.00;95345.56;5095868;28;20051;-72
2023/07/29 05:50:06;;;;;;;2.03;0.73;;;;;;;16.41;100.00;95342.97;5095592;28;20044;-73
2023/07/29 05:52:33;;;;;;;1.17;0.80;;;;;;;16.44;100.00;95344.47;5094200;28;20083;-72
2023/07/29 05:54:59;;;;;;;1.58;0.57;;;;;;;16.52;100.00;95351.59;5100266;28;20056;-73
2023/07/29 05:57:27;;;;;;;1.08;0.82;;;;;;;16.55;100.00;95349.53;5102740;28;20051;-72
2023/07/29 05:59:54;;;;;;;1.85;1.35;;;;;;;16.56;100.00;95347.72;5095220;28;20048;-72
2023/07/29 06:02:20;;;;;;;2.90;1.52;;;;;;;16.57;100.00;95347.56;5093913;28;20052;-72
2023/07/29 06:04:46;;;;;;;3.53;1.38;;;;;;;16.55;100.00;95349.53;5093226;28;20052;-73
2023/07/29 06:07:13;;;;;;;1.55;1.20;;;;;;;16.60;100.00;95346.47;5103156;28;20050;-73
2023/07/29 06:09:40;;;;;;;0.85;0.80;;;;;;;16.62;100.00;95358.44;5098836;28;20143;-72
2023/07/29 06:12:07;;;;;;;2.08;1.15;;;;;;;16.69;100.00;95356.09;5098369;28;20455;-73
2023/07/29 06:14:35;;;;;;;1.20;0.85;;;;;;;16.78;100.00;95367.50;5096941;28;20090;-73
2023/07/29 06:17:02;;;;;;;1.77;1.15;;;;;;;16.78;100.00;95370.13;5095898;28;20063;-73
2023/07/29 06:19:28;;;;;;;1.08;0.88;;;;;;;16.79;100.00;95375.19;5098011;28;20493;-72
2023/07/29 06:21:56;;;;;;;0.88;0.77;;;;;;;16.80;100.00;95387.31;5096657;28;20090;-73
2023/07/29 06:24:23;;;;;;;1.23;0.82;;;;;;;16.83;100.00;95391.41;5100172;28;20052;-73
2023/07/29 06:26:49;;;;;;;1.15;0.82;;;;;;;16.82;100.00;95385.38;5098076;28;20485;-72
2023/07/29 06:29:16;;;;;;;1.55;0.80;;;;;;;16.84;100.00;95383.44;5105291;28;20052;-73
2023/07/29 06:31:43;;;;;;;2.15;1.17;;;;;;;16.83;100.00;95376.53;5096942;28;20048;-72
2023/07/29 06:34:10;;;;;;;1.58;0.93;;;;;;;16.83;100.00;95378.34;5101881;28;20051;-72
2023/07/29 06:36:36;;;;;;;2.25;1.15;;;;;;;16.87;100.00;95387.53;5094818;28;20047;-72
2023/07/29 06:39:03;;;;;;;2.40;1.23;;;;;;;16.84;100.00;95388.69;5099635;28;20052;-72
2023/07/29 06:41:30;;;;;;;1.17;0.88;;;;;;;16.82;100.00;95392.41;5098855;28;20048;-72
2023/07/29 06:43:56;;;;;;;1.33;1.17;;;;;;;16.88;100.00;95397.06;5101220;28;20127;-72
2023/07/29 06:46:23;;;;;;;2.25;1.30;;;;;;;16.88;100.00;95405.72;5104970;28;20044;-72
2023/07/29 06:48:51;;;;;;;5.07;1.00;;;;;;;16.89;100.00;95409.16;5102795;28;20078;-72
2023/07/29 06:51:17;;;;;;;2.80;1.20;;;;;;;16.98;100.00;95403.06;5106884;28;20036;-72
2023/07/29 06:53:43;;;;;;;2.67;0.80;;;;;;;17.00;100.00;95395.91;5104533;28;20065;-72
2023/07/29 06:56:10;;;;;;;2.72;1.20;;;;;;;17.06;100.00;95397.94;5103787;28;20097;-72
2023/07/29 06:58:37;;;;;;;1.55;1.10;;;;;;;17.07;100.00;95412.66;5101870;28;20043;-72
2023/07/29 07:01:03;;;;;;;2.53;1.05;;;;;;;17.05;100.00;95403.31;5104074;28;20044;-72
2023/07/29 07:03:30;;;;;;;3.47;1.60;;;;;;;17.05;100.00;95385.81;5097770;28;20048;-72
2023/07/29 07:05:57;;;;;;;1.70;1.08;;;;;;;17.06;100.00;95384.88;5105824;28;20044;-73
2023/07/29 07:08:24;;;;;;;1.17;0.98;;;;;;;17.11;100.00;95373.94;5101371;28;20400;-72
2023/07/29 07:10:50;;;;;;;1.98;1.17;;;;;;;17.15;100.00;95381.34;5101378;28;20044;-72
2023/07/29 07:13:17;;;;;;;2.67;1.23;;;;;;;17.18;100.00;95394.16;5104510;28;20104;-72
2023/07/29 07:15:43;;;;;;;3.05;1.20;;;;;;;17.23;100.00;95392.88;5097701;28;20048;-72
2023/07/29 07:18:10;;;;;;;1.80;1.08;;;;;;;17.26;100.00;95397.84;5102378;28;20496;-72
2023/07/29 07:20:36;;;;;;;1.45;1.20;;;;;;;17.36;100.00;95404.66;5093737;28;20153;-72
2023/07/29 07:23:05;;;;;;;1.10;1.00;;;;;;;17.41;100.00;95412.06;5096475;28;20055;-73
2023/07/29 07:25:31;;;;;;;4.05;1.10;;;;;;;17.50;100.00;95400.72;5097902;28;20101;-72
2023/07/29 07:27:58;;;;;;;2.50;1.10;;;;;;;17.54;100.00;95403.84;5101398;28;20056;-72
2023/07/29 07:30:24;;;;;;;1.08;0.95;;;;;;;17.60;100.00;95406.72;5099205;28;20043;-72
2023/07/29 07:32:50;;;;;;;2.10;1.23;;;;;;;17.58;100.00;95400.00;5098043;28;20579;-72
2023/07/29 07:35:18;;;;;;;1.48;1.10;;;;;;;17.67;100.00;95397.28;5094483;28;20044;-72
2023/07/29 07:37:45;;;;;;;2.45;0.98;;;;;;;17.84;100.00;95394.88;5102829;28;20508;-73
2023/07/29 07:40:13;;;;;;;2.25;1.15;;;;;;;17.86;100.00;95391.09;5098669;28;20039;-72
2023/07/29 07:42:39;;;;;;;2.38;1.15;;;;;;;17.96;100.00;95391.03;5092800;28;20105;-72
2023/07/29 07:45:06;;;;;;;5.88;0.80;;;;;;;18.08;100.00;95389.00;5089891;28;20415;-72
2023/07/29 07:47:33;;;;;;;1.10;0.88;;;;;;;18.08;100.00;95395.06;5101617;27;20040;-72
2023/07/29 07:49:59;;;;;;;1.00;0.90;;;;;;;18.29;100.00;95391.31;5096149;28;20048;-72
2023/07/29 07:52:26;;;;;;;2.95;1.05;;;;;;;18.31;100.00;95392.78;5099856;28;20054;-72
2023/07/29 07:54:53;;;;;;;1.83;0.93;;;;;;;18.34;100.00;95392.47;5107846;28;20413;-72
2023/07/29 07:57:21;;;;;;;1.33;0.80;;;;;;;18.42;100.00;95391.72;5107369;28;20079;-72
2023/07/29 07:59:47;;;;;;;4.53;0.88;;;;;;;18.38;100.00;95396.44;5095291;28;20071;-72
2023/07/29 08:02:14;;;;;;;1.95;1.02;;;;;;;18.34;100.00;95404.78;5100196;28;20047;-72
2023/07/29 08:04:40;;;;;;;1.02;0.90;;;;;;;18.44;100.00;95405.50;5097071;28;20048;-72
2023/07/29 08:07:07;;;;;;;1.75;0.80;;;;;;;18.52;100.00;95417.84;5104800;28;20050;-73
2023/07/29 08:09:33;;;;;;;2.67;0.63;;;;;;;18.45;100.00;95422.06;5099456;28;20040;-73
2023/07/29 08:12:00;;;;;;;4.03;0.80;;;;;;;18.41;100.00;95418.91;5100717;28;20403;-73
2023/07/29 08:14:28;;;;;;;5.95;0.90;;;;;;;18.40;100.00;95424.31;5102290;28;20065;-73
2023/07/29 08:16:54;;;;;;;2.17;1.00;;;;;;;18.35;100.00;95430.84;5094179;28;20430;-72
2023/07/29 08:19:21;;;;;;;1.10;1.00;;;;;;;18.41;100.00;95426.78;5104518;28;20074;-73
2023/07/29 08:21:47;;;;;;;1.55;0.90;;;;;;;18.54;100.00;95432.47;5096327;28;20044;-73
2023/07/29 08:24:14;;;;;;;2.47;0.95;;;;;;;18.61;100.00;95427.41;5102760;28;20050;-73
2023/07/29 08:26:40;;;;;;;1.02;0.70;;;;;;;18.76;100.00;95425.06;5095423;28;20052;-73
2023/07/29 08:29:07;;;;;;;1.38;1.10;;;;;;;18.89;100.00;95425.47;5103290;28;20048;-73
2023/07/29 08:31:35;;;;;;;1.67;1.20;;;;;;;18.98;100.00;95426.34;5097941;28;20066;-73
2023/07/29 08:34:01;;;;;;;0.93;0.82;;;;;;;19.05;100.00;95430.81;5089030;28;20102;-73
2023/07/29 08:36:27;;;;;;;3.05;1.05;;;;;;;19.08;100.00;95433.13;5096018;28;20044;-73
2023/07/29 08:38:54;;;;;;;1.20;0.90;;;;;;;19.07;100.00;95430.66;5098488;28;20052;-72
2023/07/29 08:41:26;;;;;;;1.20;1.00;;;;;;;19.08;100.00;95432.31;5098902;28;20054;-73
2023/07/29 08:44:00;;;;;;;2.50;0.98;;;;;;;19.17;100.00;95434.00;5103177;28;20054;-73
2023/07/29 08:46:26;;;;;;;1.33;0.82;;;;;;;19.27;100.00;95429.44;5102473;28;20414;-73
2023/07/29 08:48:55;;;;;;;1.95;1.05;;;;;;;19.44;100.00;95434.75;5100858;28;20044;-73
2023/07/29 08:51:24;;;;;;;1.52;0.90;;;;;;;19.49;100.00;95430.66;5100879;28;20524;-73
2023/07/29 08:53:50;;;;;;;2.35;0.80;;;;;;;19.67;100.00;95432.38;5103256;28;20062;-72
2023/07/29 08:56:17;;;;;;;3.17;1.02;;;;;;;19.90;100.00;95436.03;5100062;28;20055;-72
2023/07/29 08:58:44;;;;;;;0.60;0.60;;;;;;;20.00;100.00;95434.09;5098185;28;20066;-75
2023/07/29 09:01:10;;;;;;;2.00;1.10;;;;;;;20.15;100.00;95433.44;5101145;28;20055;-75
2023/07/29 09:03:37;;;;;;;1.88;1.02;;;;;;;20.20;100.00;95428.50;5097755;28;20040;-74
2023/07/29 09:06:06;;;;;;;3.88;1.02;;;;;;;20.26;100.00;95420.78;5104115;28;20054;-74
2023/07/29 09:08:34;;;;;;;1.20;0.80;;;;;;;20.29;100.00;95423.09;5098252;28;20439;-74
2023/07/29 09:11:01;;;;;;;1.13;0.90;;;;;;;20.39;100.00;95419.47;5098588;28;20048;-74
2023/07/29 09:13:28;;;;;;;1.30;0.95;;;;;;;20.30;100.00;95416.03;5096158;28;20045;-74
2023/07/29 09:15:56;;;;;;;1.35;0.85;;;;;;;20.29;100.00;95412.59;5092301;28;20501;-74
2023/07/29 09:18:22;;;;;;;1.23;0.90;;;;;;;20.34;100.00;95412.09;5100367;28;20075;-74
2023/07/29 09:20:50;;;;;;;1.20;1.00;;;;;;;20.42;100.00;95406.00;5095222;28;20043;-74
2023/07/29 09:23:18;;;;;;;0.82;0.75;;;;;;;20.44;100.00;95418.00;5101035;28;20047;-74
2023/07/29 09:25:47;;;;;;;2.03;0.90;;;;;;;20.54;100.00;95410.81;5089584;28;20052;-73
2023/07/29 09:28:15;;;;;;;4.13;0.98;;;;;;;20.58;100.00;95413.06;5094542;28;20047;-74
2023/07/29 09:30:43;;;;;;;2.30;1.15;;;;;;;20.55;100.00;95408.97;5096767;28;20043;-73
2023/07/29 09:33:10;;;;;;;;;;;;;;;20.62;100.00;95394.19;5103237;28;20071;-73
2023/07/29 09:35:37;;;;;;;;;;;;;;;20.60;100.00;95404.03;5099444;28;20285;-72
2023/07/29 09:38:03;;;;;;;;;;;;;;;20.76;100.00;95411.91;5096766;28;19920;-72
2023/07/29 09:40:37;;;;;;;;;;;;;;;21.09;100.00;95405.72;5100933;28;20603;-72
2023/07/29 09:43:03;;;;;;;;;;;;;;;21.20;100.00;95406.16;5102280;28;19981;-72
2023/07/29 09:45:30;;;;;;;;;;;;;;;21.23;100.00;95403.19;5102443;28;19924;-73
2023/07/29 09:47:58;;;;;;;;;;;;;;;21.38;100.00;95413.06;5101149;28;20029;-73
2023/07/29 09:50:25;;;;;;;;;;;;;;;21.19;100.00;95415.06;5106512;28;19920;-73
2023/07/29 09:52:52;;;;;;;;;;;;;;;21.33;100.00;95416.22;5101051;28;20513;-73
2023/07/29 09:55:21;;;;;;;;;;;;;;;21.30;100.00;95413.88;5104176;28;21230;-73
2023/07/29 09:57:49;;;;;;;;;;;;;;;21.24;100.00;95406.66;5103924;28;19928;-73
2023/07/29 10:00:15;;;;;;;;;;;;;;;21.03;100.00;95417.75;5103144;28;19942;-73
2023/07/29 10:02:43;;;;;;;;;;;;;;;20.98;100.00;95425.34;5101266;28;19931;-75
2023/07/29 10:05:10;;;;;;;;;;;;;;;21.10;100.00;95431.91;5100184;28;20335;-74
2023/07/29 10:07:37;;;;;;;;;;;;;;;21.06;100.00;95427.13;5098293;28;19962;-74
2023/07/29 10:10:04;;;;;;;;;;;;;;;21.06;100.00;95427.94;5098083;28;19924;-74
2023/07/29 10:12:31;;;;;;;;;;;;;;;20.64;100.00;95436.91;5103651;28;19931;-74
2023/07/29 10:15:00;;;;;;;;;;;;;;;20.38;100.00;95434.44;5100018;28;19924;-74
2023/07/29 10:17:27;;;;;;;;;;;;;;;20.40;100.00;95450.88;5104298;28;19955;-74
2023/07/29 10:19:54;;;;;;;;;;;;;;;20.36;100.00;95454.00;5098191;28;20302;-74
2023/07/29 10:22:21;;;;;;;;;;;;;;;20.17;100.00;95455.97;5096737;28;19946;-74
2023/07/29 10:24:49;;;;;;;;;;;;;;;20.11;100.00;95442.66;5099576;28;19924;-73
2023/07/29 10:27:18;;;;;;;;;;;;;;;19.96;100.00;95458.25;5096692;28;19932;-73
2023/07/29 10:29:46;;;;;;;;;;;;;;;19.86;100.00;95461.00;5105239;28;19930;-73
2023/07/29 10:32:13;;;;;;;;;;;;;;;19.92;100.00;95454.28;5080174;28;19928;-73
2023/07/29 10:34:40;;;;;;;;;;;;;;;20.17;100.00;95453.34;5083803;28;19932;-73
2023/07/29 10:37:07;;;;;;;;;;;;;;;20.18;100.00;95433.94;5086773;28;19932;-72
2023/07/29 10:39:38;;;;;;;;;;;;;;;20.18;100.00;95431.31;5098451;28;19924;-72
2023/07/29 10:42:06;;;;;;;;;;;;;;;20.23;100.00;95428.19;5092583;28;20048;-73
2023/07/29 10:44:49;;;;;;;;;;;;;;;20.23;100.00;95433.44;5103555;28;19931;-73
2023/07/29 10:47:17;;;;;;;;;;;;;;;20.45;100.00;95445.13;5096743;28;19928;-73
2023/07/29 10:49:43;;;;;;;;;;;;;;;20.55;100.00;95443.19;5101108;28;20310;-73
2023/07/29 10:52:13;;;;;;;;;;;;;;;20.62;100.00;95449.44;5098940;28;19932;-72
2023/07/29 10:54:42;;;;;;;;;;;;;;;20.56;100.00;95446.63;5096613;28;19925;-72
2023/07/29 10:57:13;;;;;;;;;;;;;;;20.76;100.00;95440.00;5086559;28;19951;-73
2023/07/29 10:59:39;;;;;;;;;;;;;;;20.94;100.00;95431.94;5102995;28;19993;-73
2023/07/29 11:02:13;;;;;;;;;;;;;;;20.91;100.00;95435.75;5105729;28;19971;-73
2023/07/29 11:04:48;;;;;;;;;;;;;;;20.98;100.00;95435.84;5100460;28;20404;-73
2023/07/29 11:07:26;;;;;;;;;;;;;;;21.11;100.00;95432.72;5099119;28;19931;-72
2023/07/29 11:09:53;;;;;;;;;;;;;;;21.16;100.00;95423.31;5090259;28;19924;-72
2023/07/29 11:12:39;;;;;;;;;;;;;;;21.05;100.00;95428.13;5099738;28;19923;-73
2023/07/29 11:15:12;;;;;;;;;;;;;;;21.14;100.00;95424.47;5097139;28;19948;-72
2023/07/29 11:17:40;;;;;;;;;;;;;;;21.31;100.00;95438.41;5093770;28;20347;-73
2023/07/29 11:20:09;;;;;;;;;;;;;;;21.36;100.00;95431.66;5097349;28;19939;-72
2023/07/29 11:22:36;;;;;;;;;;;;;;;21.35;100.00;95426.56;5100472;28;19980;-73
2023/07/29 11:25:02;;;;;;;;;;;;;;;21.38;100.00;95429.66;5095081;28;19950;-73
2023/07/29 11:27:28;;;;;;;;;;;;;;;21.66;100.00;95427.41;5095059;28;20294;-74
2023/07/29 11:29:57;;;;;;;;;;;;;;;21.91;100.00;95430.69;5098152;28;19927;-72
2023/07/29 11:32:23;;;;;;;;;;;;;;;21.84;100.00;95426.31;5094871;28;19924;-73
2023/07/29 11:34:50;;;;;;;;;;;;;;;21.79;100.00;95429.47;5097661;28;19935;-73
2023/07/29 11:37:17;;;;;;;;;;;;;;;22.11;100.00;95428.44;5101753;28;19924;-73